createdAt,value
2018-09-04T00:01:52.641Z,19.90
2018-09-04T00:04:23.048Z,19.80
2018-09-04T00:06:53.104Z,19.90
2018-09-04T00:09:23.688Z,19.90
2018-09-04T00:11:54.496Z,19.80
2018-09-04T00:14:25.297Z,19.80
2018-09-04T00:16:55.314Z,19.80
2018-09-04T00:19:25.350Z,19.70
2018-09-04T00:21:56.378Z,19.60
2018-09-04T00:24:28.079Z,19.60
2018-09-04T00:27:00.131Z,19.60
2018-09-04T00:29:31.283Z,19.50
2018-09-04T00:32:02.726Z,19.50
2018-09-04T00:34:35.213Z,19.60
2018-09-04T00:37:06.641Z,19.60
2018-09-04T00:39:36.751Z,19.60
2018-09-04T00:42:08.762Z,19.60
2018-09-04T00:44:39.690Z,19.60
2018-09-04T00:47:09.753Z,19.60
2018-09-04T00:49:39.552Z,19.60
2018-09-04T00:52:10.220Z,19.60
2018-09-04T00:54:45.780Z,19.60
2018-09-04T00:57:16.018Z,19.60
2018-09-04T00:59:46.929Z,19.60
2018-09-04T01:02:19.109Z,19.70
2018-09-04T01:04:50.458Z,19.70
2018-09-04T01:07:20.634Z,19.70
2018-09-04T01:09:51.193Z,19.70
2018-09-04T01:12:21.638Z,19.70
2018-09-04T01:14:56.372Z,19.80
2018-09-04T01:17:28.047Z,19.70
2018-09-04T01:19:58.369Z,19.70
2018-09-04T01:22:28.374Z,19.70
2018-09-04T01:24:58.225Z,19.70
2018-09-04T01:27:29.252Z,19.60
2018-09-04T01:29:59.772Z,19.60
2018-09-04T01:32:31.987Z,19.50
2018-09-04T01:35:01.941Z,19.40
2018-09-04T01:37:32.102Z,19.50
2018-09-04T01:40:05.000Z,19.40
2018-09-04T01:42:35.922Z,19.40
2018-09-04T01:45:06.884Z,19.40
2018-09-04T01:47:37.112Z,19.30
2018-09-04T01:50:07.260Z,19.30
2018-09-04T01:52:37.598Z,19.30
2018-09-04T01:55:07.975Z,19.30
2018-09-04T01:57:38.844Z,19.20
2018-09-04T02:00:10.392Z,19.20
2018-09-04T02:02:41.162Z,19.10
2018-09-04T02:05:13.516Z,19.10
2018-09-04T02:07:43.438Z,19.10
2018-09-04T02:10:14.515Z,19.10
2018-09-04T02:12:46.913Z,19.00
2018-09-04T02:15:16.784Z,19.00
2018-09-04T02:17:46.726Z,19.00
2018-09-04T02:20:18.861Z,19.00
2018-09-04T02:22:50.727Z,18.90
2018-09-04T02:25:20.562Z,18.80
2018-09-04T02:27:50.996Z,18.80
2018-09-04T02:30:20.823Z,18.80
2018-09-04T02:32:50.804Z,18.70
2018-09-04T02:35:20.665Z,18.70
2018-09-04T02:37:51.145Z,18.70
2018-09-04T02:40:23.065Z,18.60
2018-09-04T02:42:54.920Z,18.60
2018-09-04T02:45:25.953Z,18.60
2018-09-04T02:47:56.460Z,18.50
2018-09-04T02:50:27.653Z,18.50
2018-09-04T02:52:58.723Z,18.50
2018-09-04T02:55:28.724Z,18.50
2018-09-04T02:57:59.928Z,18.40
2018-09-04T03:00:30.873Z,18.40
2018-09-04T03:03:01.675Z,18.40
2018-09-04T03:05:32.501Z,18.40
2018-09-04T03:08:03.863Z,18.40
2018-09-04T03:10:33.813Z,18.40
2018-09-04T03:13:04.596Z,18.40
2018-09-04T03:15:36.932Z,18.40
2018-09-04T03:18:07.009Z,18.40
2018-09-04T03:20:38.195Z,18.40
2018-09-04T03:23:08.765Z,18.40
2018-09-04T03:25:38.849Z,18.40
2018-09-04T03:28:11.400Z,18.40
2018-09-04T03:30:41.372Z,18.30
2018-09-04T03:33:11.348Z,18.30
2018-09-04T03:35:41.293Z,18.30
2018-09-04T03:38:11.695Z,18.30
2018-09-04T03:40:41.542Z,18.30
2018-09-04T03:43:11.527Z,18.30
2018-09-04T03:45:41.918Z,18.20
2018-09-04T03:48:11.795Z,18.20
2018-09-04T03:50:42.004Z,18.20
2018-09-04T03:53:11.892Z,18.20
2018-09-04T03:55:41.896Z,18.20
2018-09-04T03:58:13.632Z,18.10
2018-09-04T04:00:43.590Z,18.10
2018-09-04T04:03:13.667Z,18.10
2018-09-04T04:05:44.650Z,18.20
2018-09-04T04:08:14.686Z,18.10
2018-09-04T04:10:44.716Z,18.10
2018-09-04T04:13:14.718Z,18.10
2018-09-04T04:15:44.689Z,18.10
2018-09-04T04:18:21.523Z,18.10
2018-09-04T04:21:00.571Z,18.10
2018-09-04T04:23:31.581Z,18.20
2018-09-04T04:26:02.952Z,18.20
2018-09-04T04:28:33.427Z,18.20
2018-09-04T04:31:03.788Z,18.20
2018-09-04T04:33:33.707Z,18.20
2018-09-04T04:36:04.610Z,18.30
2018-09-04T04:38:34.761Z,18.30
2018-09-04T04:41:04.646Z,18.30
2018-09-04T04:43:34.446Z,18.30
2018-09-04T04:46:05.399Z,18.30
2018-09-04T04:48:36.329Z,18.30
2018-09-04T04:51:06.537Z,18.30
2018-09-04T04:53:38.812Z,18.30
2018-09-04T04:56:10.017Z,18.30
2018-09-04T04:58:40.051Z,18.30
2018-09-04T05:01:10.407Z,18.30
2018-09-04T05:03:42.407Z,18.30
2018-09-04T05:06:13.658Z,18.30
2018-09-04T05:08:43.683Z,18.30
2018-09-04T05:11:14.997Z,18.40
2018-09-04T05:13:45.812Z,18.40
2018-09-04T05:16:17.104Z,18.40
2018-09-04T05:18:47.625Z,18.40
2018-09-04T05:21:17.687Z,18.40
2018-09-04T05:23:47.846Z,18.50
2018-09-04T05:26:18.840Z,18.40
2018-09-04T05:28:49.030Z,18.40
2018-09-04T05:31:21.453Z,18.40
2018-09-04T05:33:51.775Z,18.40
2018-09-04T05:36:22.495Z,18.40
2018-09-04T05:38:53.768Z,18.40
2018-09-04T05:41:24.766Z,18.40
2018-09-04T05:43:58.229Z,18.50
2018-09-04T05:46:39.480Z,18.50
2018-09-04T05:51:52.330Z,18.50
2018-09-04T05:54:23.679Z,18.60
2018-09-04T05:56:56.975Z,18.70
2018-09-04T05:59:27.250Z,18.70
2018-09-04T06:01:57.165Z,18.70
2018-09-04T06:04:27.312Z,18.70
2018-09-04T06:06:57.177Z,18.70
2018-09-04T06:09:28.207Z,18.60
2018-09-04T06:11:58.100Z,18.70
2018-09-04T06:14:28.121Z,18.70
2018-09-04T06:16:57.967Z,18.80
2018-09-04T06:19:31.006Z,18.80
2018-09-04T06:22:00.972Z,18.80
2018-09-04T06:24:30.900Z,18.80
2018-09-04T06:27:02.007Z,18.80
2018-09-04T06:29:32.319Z,18.90
2018-09-04T06:32:03.279Z,18.80
2018-09-04T06:34:34.914Z,18.70
2018-09-04T06:37:07.072Z,18.80
2018-09-04T06:39:44.207Z,18.90
2018-09-04T06:42:14.290Z,19.30
2018-09-04T06:44:45.116Z,20.00
2018-09-04T06:47:15.383Z,20.30
2018-09-04T06:49:47.152Z,20.50
2018-09-04T06:52:21.779Z,20.40
2018-09-04T06:54:52.304Z,20.30
2018-09-04T06:57:23.106Z,20.30
2018-09-04T06:59:55.230Z,20.20
2018-09-04T07:02:26.828Z,20.20
2018-09-04T07:04:56.912Z,20.20
2018-09-04T07:07:28.679Z,20.30
2018-09-04T07:09:59.190Z,20.30
2018-09-04T07:12:29.868Z,20.30
2018-09-04T07:15:00.241Z,20.30
2018-09-04T07:17:30.244Z,20.40
2018-09-04T07:20:03.180Z,20.50
2018-09-04T07:22:34.424Z,20.50
2018-09-04T07:25:05.416Z,20.50
2018-09-04T07:27:37.708Z,20.40
2018-09-04T07:35:17.519Z,20.40
2018-09-04T07:37:59.416Z,20.40
2018-09-04T07:40:35.220Z,20.70
2018-09-04T07:43:13.074Z,20.80
2018-09-04T07:45:45.433Z,20.80
2018-09-04T07:48:15.420Z,20.90
2018-09-04T07:50:46.518Z,21.00
2018-09-04T07:53:17.531Z,21.00
2018-09-04T07:55:48.690Z,21.10
2018-09-04T07:58:20.359Z,21.20
2018-09-04T08:00:51.822Z,21.00
2018-09-04T08:03:22.228Z,21.10
2018-09-04T08:05:52.513Z,21.20
2018-09-04T08:08:35.116Z,21.40
2018-09-04T08:11:24.545Z,21.60
2018-09-04T08:13:57.629Z,21.70
2018-09-04T08:16:31.475Z,21.80
2018-09-04T08:19:01.654Z,21.90
2018-09-04T08:21:35.832Z,22.10
2018-09-04T08:24:07.876Z,22.30
2018-09-04T08:26:38.256Z,22.50
2018-09-04T08:29:21.707Z,23.30
2018-09-04T08:31:52.372Z,24.20
2018-09-04T08:34:22.746Z,25.30
2018-09-04T08:36:52.816Z,26.00
2018-09-04T08:39:23.798Z,26.20
2018-09-04T08:42:02.946Z,26.80
2018-09-04T08:44:36.176Z,27.90
2018-09-04T08:47:07.108Z,28.70
2018-09-04T08:49:37.476Z,29.70
2018-09-04T08:52:07.566Z,30.20
2018-09-04T08:54:43.949Z,30.30
2018-09-04T08:57:14.287Z,30.50
2018-09-04T08:59:46.156Z,29.70
2018-09-04T09:02:16.466Z,28.90
2018-09-04T09:04:49.822Z,28.40
2018-09-04T09:07:21.095Z,29.30
2018-09-04T09:09:51.229Z,29.40
2018-09-04T09:12:21.455Z,29.60
2018-09-04T09:14:52.872Z,29.30
2018-09-04T09:17:41.603Z,29.20
2018-09-04T09:20:20.462Z,29.70
2018-09-04T09:22:53.298Z,30.70
2018-09-04T09:25:24.327Z,31.10
2018-09-04T09:27:55.938Z,31.80
2018-09-04T09:30:26.736Z,32.20
2018-09-04T09:32:57.233Z,32.60
2018-09-04T09:35:27.616Z,33.00
2018-09-04T09:37:58.632Z,32.70
2018-09-04T09:40:29.959Z,30.80
2018-09-04T09:43:01.776Z,31.70
2018-09-04T09:45:31.961Z,31.40
2018-09-04T09:48:08.748Z,30.80
2018-09-04T09:51:03.085Z,30.00
2018-09-04T09:53:36.181Z,31.50
2018-09-04T09:56:11.971Z,32.70
2018-09-04T09:58:42.233Z,33.00
2018-09-04T10:01:22.798Z,33.00
2018-09-04T10:04:01.807Z,33.20
2018-09-04T10:06:44.786Z,32.40
2018-09-04T10:09:22.306Z,33.20
2018-09-04T10:11:55.188Z,32.70
2018-09-04T10:14:26.692Z,33.60
2018-09-04T10:16:58.303Z,33.60
2018-09-04T10:19:35.020Z,33.70
2018-09-04T10:22:05.285Z,34.20
2018-09-04T10:24:35.876Z,33.90
2018-09-04T10:27:07.589Z,33.50
2018-09-04T10:29:39.531Z,33.70
2018-09-04T10:32:09.727Z,33.90
2018-09-04T10:34:45.729Z,34.40
2018-09-04T10:37:29.111Z,35.00
2018-09-04T10:42:15.288Z,35.20
2018-09-04T10:44:46.823Z,34.70
2018-09-04T10:47:19.672Z,34.90
2018-09-04T10:49:52.926Z,34.50
2018-09-04T10:52:32.436Z,34.20
2018-09-04T10:55:06.603Z,34.00
2018-09-04T10:57:37.675Z,34.30
2018-09-04T11:00:09.656Z,35.00
2018-09-04T11:03:06.426Z,34.70
2018-09-04T11:05:55.310Z,33.30
2018-09-04T11:08:34.884Z,33.60
2018-09-04T11:11:41.537Z,34.00
2018-09-04T11:14:23.667Z,33.10
2018-09-04T11:17:11.854Z,32.30
2018-09-04T11:19:46.078Z,31.70
2018-09-04T11:22:16.962Z,31.20
2018-09-04T11:24:48.579Z,30.50
2018-09-04T11:27:20.679Z,30.00
2018-09-04T11:29:53.003Z,30.20
2018-09-04T11:32:24.118Z,31.70
2018-09-04T11:34:54.861Z,32.70
2018-09-04T11:37:26.113Z,33.30
2018-09-04T11:39:56.817Z,33.00
2018-09-04T11:42:27.839Z,33.60
2018-09-04T11:44:59.166Z,34.40
2018-09-04T11:47:29.402Z,34.40
2018-09-04T11:50:00.157Z,33.90
2018-09-04T11:52:39.361Z,33.70
2018-09-04T11:55:17.632Z,34.10
2018-09-04T11:57:53.224Z,34.00
2018-09-04T12:00:35.520Z,34.10
2018-09-04T12:03:06.793Z,33.90
2018-09-04T12:05:37.455Z,33.80
2018-09-04T12:08:08.642Z,34.50
2018-09-04T12:10:41.786Z,34.30
2018-09-04T12:13:22.254Z,34.70
2018-09-04T12:15:52.433Z,35.00
2018-09-04T12:18:24.985Z,33.90
2018-09-04T12:20:58.259Z,32.50
2018-09-04T12:23:32.211Z,32.00
2018-09-04T12:26:03.781Z,32.40
2018-09-04T12:28:34.370Z,31.20
2018-09-04T12:31:07.006Z,31.20
2018-09-04T12:33:40.521Z,31.40
2018-09-04T12:36:10.629Z,31.90
2018-09-04T12:38:43.685Z,32.50
2018-09-04T12:41:23.821Z,33.50
2018-09-04T12:43:56.644Z,34.00
2018-09-04T12:46:35.591Z,34.00
2018-09-04T12:49:17.191Z,34.30
2018-09-04T12:51:54.369Z,34.10
2018-09-04T12:54:25.492Z,34.00
2018-09-04T12:57:05.652Z,34.30
2018-09-04T12:59:37.551Z,34.70
2018-09-04T13:02:10.428Z,34.60
2018-09-04T13:04:42.042Z,34.70
2018-09-04T13:07:12.968Z,34.60
2018-09-04T13:09:46.911Z,33.90
2018-09-04T13:12:19.132Z,33.80
2018-09-04T13:17:27.100Z,33.80
2018-09-04T13:20:01.441Z,34.20
2018-09-04T13:22:33.747Z,33.50
2018-09-04T13:25:08.189Z,33.80
2018-09-04T13:27:39.053Z,34.60
2018-09-04T13:30:09.317Z,35.30
2018-09-04T13:32:39.782Z,35.40
2018-09-04T13:35:10.938Z,35.30
2018-09-04T13:37:41.367Z,35.00
2018-09-04T13:40:11.692Z,34.90
2018-09-04T13:42:42.816Z,35.10
2018-09-04T13:45:14.619Z,35.40
2018-09-04T13:47:45.899Z,35.60
2018-09-04T13:50:23.241Z,35.80
2018-09-04T13:52:53.933Z,35.30
2018-09-04T13:55:24.257Z,33.90
2018-09-04T13:57:55.875Z,32.90
2018-09-04T14:00:27.064Z,32.60
2018-09-04T14:02:57.983Z,31.90
2018-09-04T14:05:51.677Z,31.40
2018-09-04T14:08:24.360Z,31.00
2018-09-04T14:10:55.709Z,30.70
2018-09-04T14:13:39.128Z,30.40
2018-09-04T14:16:17.744Z,29.90
2018-09-04T14:18:58.225Z,29.70
2018-09-04T14:21:28.809Z,29.20
2018-09-04T14:24:00.595Z,29.00
2018-09-04T14:26:33.240Z,28.80
2018-09-04T14:29:06.957Z,28.90
2018-09-04T14:31:36.599Z,28.90
2018-09-04T14:34:07.579Z,29.00
2018-09-04T14:36:38.675Z,29.00
2018-09-04T14:39:09.085Z,28.90
2018-09-04T14:41:41.537Z,28.90
2018-09-04T14:44:12.935Z,29.10
2018-09-04T14:46:47.551Z,29.20
2018-09-04T14:49:18.337Z,29.40
2018-09-04T14:51:50.584Z,29.60
2018-09-04T14:54:20.721Z,29.60
2018-09-04T14:57:00.455Z,29.60
2018-09-04T15:00:17.048Z,29.10
2018-09-04T15:02:53.621Z,29.20
2018-09-04T15:05:35.365Z,29.40
2018-09-04T15:08:10.638Z,29.40
2018-09-04T15:10:48.402Z,29.30
2018-09-04T15:13:23.306Z,29.30
2018-09-04T15:16:09.211Z,29.30
2018-09-04T15:18:57.194Z,29.40
2018-09-04T15:22:11.784Z,29.20
2018-09-04T15:24:52.090Z,29.20
2018-09-04T15:30:13.035Z,29.40
2018-09-04T15:32:50.911Z,29.20
2018-09-04T15:35:21.815Z,29.10
2018-09-04T15:37:53.037Z,29.00
2018-09-04T15:40:25.769Z,28.80
2018-09-04T15:42:56.741Z,28.60
2018-09-04T15:45:27.752Z,28.30
2018-09-04T15:47:59.054Z,28.00
2018-09-04T15:50:29.278Z,27.40
2018-09-04T15:52:59.883Z,26.70
2018-09-04T15:55:31.976Z,26.10
2018-09-04T15:58:03.510Z,25.70
2018-09-04T16:00:33.695Z,25.40
2018-09-04T16:03:04.274Z,24.50
2018-09-04T16:05:39.864Z,24.00
2018-09-04T16:08:10.430Z,23.20
2018-09-04T16:10:41.781Z,22.40
2018-09-04T16:15:54.588Z,21.50
2018-09-04T16:24:21.469Z,21.30
2018-09-04T16:26:56.613Z,21.40
2018-09-04T16:29:33.725Z,21.30
2018-09-04T16:32:14.374Z,21.50
2018-09-04T16:34:47.818Z,21.60
2018-09-04T16:37:29.450Z,21.60
2018-09-04T16:44:14.035Z,21.70
2018-09-04T16:46:47.737Z,21.80
2018-09-04T16:49:25.865Z,21.80
2018-09-04T16:52:11.380Z,21.80
2018-09-04T16:55:07.094Z,21.80
2018-09-04T16:57:47.305Z,21.80
2018-09-04T17:00:21.209Z,21.90
2018-09-04T17:02:55.056Z,21.90
2018-09-04T17:05:26.690Z,21.80
2018-09-04T17:08:05.652Z,21.80
2018-09-04T17:10:37.619Z,21.80
2018-09-04T17:13:13.155Z,21.80
2018-09-04T17:15:44.278Z,21.80
2018-09-04T17:18:18.920Z,21.70
2018-09-04T17:20:50.795Z,21.60
2018-09-04T17:23:47.581Z,21.60
2018-09-04T17:26:34.981Z,21.50
2018-09-04T17:29:11.567Z,21.50
2018-09-04T17:31:54.093Z,21.50
2018-09-04T17:34:25.857Z,21.50
2018-09-04T17:36:59.810Z,21.50
2018-09-04T17:39:34.281Z,21.60
2018-09-04T17:42:04.954Z,21.60
2018-09-04T17:44:38.413Z,21.60
2018-09-04T17:47:10.979Z,21.60
2018-09-04T17:49:47.348Z,21.70
2018-09-04T17:52:49.404Z,21.70
2018-09-04T17:55:38.691Z,21.60
2018-09-04T17:58:11.613Z,21.60
2018-09-04T18:00:53.261Z,21.60
2018-09-04T18:03:32.924Z,21.50
2018-09-04T18:06:17.463Z,21.50
2018-09-04T18:08:54.704Z,21.60
2018-09-04T18:11:26.098Z,21.60
2018-09-04T18:14:02.699Z,21.60
2018-09-04T18:16:34.468Z,21.60
2018-09-04T18:19:08.563Z,21.60
2018-09-04T18:21:49.598Z,21.60
2018-09-04T18:24:40.248Z,21.60
2018-09-04T18:27:25.793Z,21.60
2018-09-04T18:33:00.110Z,21.60
2018-09-04T18:35:49.798Z,21.60
2018-09-04T18:38:30.110Z,21.60
2018-09-04T18:41:05.339Z,21.60
2018-09-04T18:46:44.947Z,21.60
2018-09-04T18:49:30.160Z,21.60
2018-09-04T18:52:16.424Z,21.60
2018-09-04T18:55:12.688Z,21.60
2018-09-04T18:58:12.085Z,21.60
2018-09-04T19:00:47.422Z,21.70
2018-09-04T19:06:07.236Z,21.60
2018-09-04T19:08:42.454Z,21.70
2018-09-04T19:11:14.720Z,21.70
2018-09-04T19:13:45.100Z,21.80
2018-09-04T19:16:24.911Z,21.80
2018-09-04T19:22:17.412Z,21.50
2018-09-04T19:24:51.298Z,21.50
2018-09-04T19:27:24.477Z,21.60
2018-09-04T19:30:05.636Z,21.70
2018-09-04T19:32:36.972Z,21.70
2018-09-04T19:35:24.598Z,21.60
2018-09-04T19:38:04.493Z,21.60
2018-09-04T19:40:41.624Z,21.70
2018-09-04T19:43:40.609Z,21.70
2018-09-04T19:46:15.602Z,21.70
2018-09-04T19:48:48.728Z,21.90
2018-09-04T19:51:20.860Z,21.90
2018-09-04T19:55:06.639Z,21.70
2018-09-04T19:57:52.046Z,21.80
2018-09-04T20:04:33.358Z,22.00
2018-09-04T20:07:18.298Z,21.90
2018-09-04T20:09:49.851Z,21.90
2018-09-04T20:12:20.137Z,22.00
2018-09-04T20:14:50.971Z,21.90
2018-09-04T20:17:22.978Z,21.90
2018-09-04T20:19:58.839Z,21.90
2018-09-04T20:22:34.461Z,22.00
2018-09-04T20:25:16.195Z,22.00
2018-09-04T20:27:50.307Z,22.00
2018-09-04T20:30:29.885Z,22.10
2018-09-04T20:33:04.315Z,22.10
2018-09-04T20:35:35.919Z,22.10
2018-09-04T20:38:08.305Z,21.90
2018-09-04T20:40:47.705Z,21.90
2018-09-04T20:43:32.030Z,21.90
2018-09-04T20:46:06.460Z,22.00
2018-09-04T20:48:37.745Z,22.00
2018-09-04T20:51:10.829Z,22.00
2018-09-04T20:53:47.295Z,22.00
2018-09-04T20:56:19.895Z,22.00
2018-09-04T20:59:02.515Z,22.00
2018-09-04T21:01:44.944Z,22.00
2018-09-04T21:04:27.241Z,21.90
2018-09-04T21:07:02.567Z,21.90
2018-09-04T21:09:43.864Z,21.70
2018-09-04T21:12:14.462Z,21.60
2018-09-04T21:14:48.584Z,21.40
2018-09-04T21:17:31.850Z,21.40
2018-09-04T21:20:04.408Z,21.30
2018-09-04T21:22:42.217Z,21.20
2018-09-04T21:25:19.555Z,21.20
2018-09-04T21:27:53.509Z,21.10
2018-09-04T21:30:23.984Z,21.00
2018-09-04T21:32:55.555Z,20.90
2018-09-04T21:35:34.150Z,20.90
2018-09-04T21:38:14.899Z,20.90
2018-09-04T21:40:51.591Z,20.80
2018-09-04T21:43:22.130Z,20.80
2018-09-04T21:45:55.090Z,20.80
2018-09-04T21:48:30.022Z,20.80
2018-09-04T21:51:00.729Z,20.80
2018-09-04T21:53:31.281Z,20.90
2018-09-04T21:56:03.250Z,20.90
2018-09-04T21:58:37.532Z,20.80
2018-09-04T22:01:10.923Z,20.80
2018-09-04T22:03:44.534Z,20.80
2018-09-04T22:06:15.771Z,20.70
2018-09-04T22:08:46.296Z,20.60
2018-09-04T22:11:17.939Z,20.50
2018-09-04T22:13:48.648Z,20.50
2018-09-04T22:16:20.911Z,20.40
2018-09-04T22:18:55.079Z,20.40
2018-09-04T22:21:27.947Z,20.40
2018-09-04T22:23:59.774Z,20.30
2018-09-04T22:26:35.718Z,20.30
2018-09-04T22:29:28.554Z,20.30
2018-09-04T22:32:12.310Z,20.20
2018-09-04T22:34:44.577Z,20.20
2018-09-04T22:37:16.461Z,20.20
2018-09-04T22:39:48.914Z,20.10
2018-09-04T22:42:19.708Z,20.10
2018-09-04T22:44:50.868Z,20.20
2018-09-04T22:47:21.694Z,20.10
2018-09-04T22:52:00.159Z,20.10
2018-09-04T22:54:30.445Z,20.00
2018-09-04T22:57:01.048Z,20.00
2018-09-04T22:59:37.794Z,20.00
2018-09-04T23:02:10.544Z,19.90
2018-09-04T23:04:43.258Z,20.00
2018-09-04T23:07:14.321Z,20.00
2018-09-04T23:09:46.333Z,19.90
2018-09-04T23:12:18.453Z,19.80
2018-09-04T23:14:55.466Z,19.80
2018-09-04T23:17:33.442Z,19.80
2018-09-04T23:20:04.738Z,19.80
2018-09-04T23:22:34.836Z,19.80
2018-09-04T23:25:08.054Z,19.80
2018-09-04T23:27:39.862Z,19.80
2018-09-04T23:30:14.128Z,19.80
2018-09-04T23:32:45.592Z,19.70
2018-09-04T23:35:25.777Z,19.70
2018-09-04T23:37:56.797Z,19.70
2018-09-04T23:40:30.708Z,19.70
2018-09-04T23:43:01.933Z,19.70
2018-09-04T23:45:32.227Z,19.60
2018-09-04T23:48:03.199Z,19.60
2018-09-04T23:50:38.253Z,19.60
2018-09-04T23:53:17.003Z,19.60
2018-09-04T23:55:51.614Z,19.60
2018-09-04T23:58:29.663Z,19.60
